createdAt,value
2015-11-26T00:00:09.154Z,705.06
2015-11-26T00:00:22.451Z,705.06
2015-11-26T00:00:35.926Z,705.06
2015-11-26T00:00:49.394Z,705.07
2015-11-26T00:01:02.885Z,705.08
2015-11-26T00:01:16.369Z,705.06
2015-11-26T00:01:29.497Z,705.07
2015-11-26T00:01:45.180Z,705.08
2015-11-26T00:01:58.383Z,705.07
2015-11-26T00:02:11.539Z,705.08
2015-11-26T00:02:24.820Z,705.08
2015-11-26T00:02:38.400Z,705.08
2015-11-26T00:02:51.728Z,705.11
2015-11-26T00:03:05.041Z,705.07
2015-11-26T00:03:18.932Z,705.05
2015-11-26T00:03:32.264Z,705.07
2015-11-26T00:03:46.045Z,705.02
2015-11-26T00:03:59.570Z,705.04
2015-11-26T00:04:13.080Z,705.07
2015-11-26T00:04:26.408Z,705.08
2015-11-26T00:04:39.738Z,705.05
2015-11-26T00:04:54.207Z,705.06
2015-11-26T00:05:07.723Z,705.09
2015-11-26T00:05:21.348Z,705.05
2015-11-26T00:05:34.726Z,705.1
2015-11-26T00:05:48.007Z,705.01
2015-11-26T00:06:01.288Z,705.05
2015-11-26T00:06:14.569Z,705.07
2015-11-26T00:06:27.866Z,705.06
2015-11-26T00:06:41.181Z,705.08
2015-11-26T00:07:08.618Z,705.09
2015-11-26T00:07:22.009Z,705.08
2015-11-26T00:07:35.403Z,705.05
2015-11-26T00:07:48.731Z,705.05
2015-11-26T00:08:02.059Z,705.02
2015-11-26T00:08:15.356Z,705.05
2015-11-26T00:08:28.621Z,705.02
2015-11-26T00:08:41.921Z,705.05
2015-11-26T00:08:55.249Z,705.05
2015-11-26T00:09:08.531Z,705.04
2015-11-26T00:09:21.843Z,705.08
2015-11-26T00:09:35.159Z,705.06
2015-11-26T00:09:48.659Z,705.03
2015-11-26T00:10:01.987Z,704.93
2015-11-26T00:10:15.393Z,704.99
2015-11-26T00:10:28.752Z,705.01
2015-11-26T00:10:42.051Z,705.01
2015-11-26T00:10:55.364Z,705
2015-11-26T00:11:08.739Z,705.05
2015-11-26T00:11:22.020Z,705.04
2015-11-26T00:11:35.320Z,705.08
2015-11-26T00:11:48.632Z,705.08
2015-11-26T00:12:01.945Z,705.03
2015-11-26T00:12:15.289Z,705.03
2015-11-26T00:12:28.617Z,705.01
2015-11-26T00:12:41.947Z,705.06
2015-11-26T00:12:55.244Z,705.1
2015-11-26T00:13:08.525Z,705.09
2015-11-26T00:13:21.822Z,705.05
2015-11-26T00:13:35.107Z,705.04
2015-11-26T00:13:48.388Z,704.98
2015-11-26T00:14:01.685Z,705.02
2015-11-26T00:14:14.982Z,704.99
2015-11-26T00:14:28.326Z,705.04
2015-11-26T00:14:41.641Z,705.07
2015-11-26T00:14:54.985Z,705
2015-11-26T00:15:08.298Z,704.94
2015-11-26T00:15:21.782Z,704.94
2015-11-26T00:15:35.063Z,704.95
2015-11-26T00:15:48.346Z,705.02
2015-11-26T00:16:15.800Z,705.05
2015-11-26T00:16:29.096Z,705.02
2015-11-26T00:16:42.303Z,704.99
2015-11-26T00:16:55.631Z,704.99
2015-11-26T00:17:08.990Z,704.98
2015-11-26T00:17:22.318Z,705.04
2015-11-26T00:17:35.615Z,705.01
2015-11-26T00:17:48.758Z,705.02
2015-11-26T00:18:02.242Z,705.01
2015-11-26T00:18:15.555Z,705.03
2015-11-26T00:18:28.820Z,705.01
2015-11-26T00:18:42.120Z,705.04
2015-11-26T00:18:55.417Z,705
2015-11-26T00:19:08.776Z,705
2015-11-26T00:19:22.120Z,704.96
2015-11-26T00:19:35.464Z,704.95
2015-11-26T00:19:48.841Z,704.99
2015-11-26T00:20:02.247Z,705.04
2015-11-26T00:20:15.544Z,705.05
2015-11-26T00:20:28.841Z,705.07
2015-11-26T00:20:42.126Z,705.02
2015-11-26T00:20:55.423Z,705
2015-11-26T00:21:08.579Z,705.03
2015-11-26T00:21:21.876Z,705.04
2015-11-26T00:21:35.220Z,705.01
2015-11-26T00:21:48.551Z,705.01
2015-11-26T00:22:01.879Z,705.03
2015-11-26T00:22:15.223Z,705.06
2015-11-26T00:22:28.551Z,705.01
2015-11-26T00:22:41.897Z,705.02
2015-11-26T00:22:55.240Z,705.08
2015-11-26T00:23:08.522Z,705.06
2015-11-26T00:23:21.819Z,705.07
2015-11-26T00:23:35.100Z,705.07
2015-11-26T00:23:48.367Z,705.09
2015-11-26T00:24:01.680Z,705.05
2015-11-26T00:24:15.008Z,705.11
2015-11-26T00:24:28.336Z,705.09
2015-11-26T00:24:41.680Z,705.09
2015-11-26T00:24:54.965Z,705.11
2015-11-26T00:25:08.262Z,705.11
2015-11-26T00:25:21.543Z,705.11
2015-11-26T00:25:34.918Z,705.12
2015-11-26T00:25:48.218Z,705.13
2015-11-26T00:26:01.499Z,705.12
2015-11-26T00:26:14.812Z,705.1
2015-11-26T00:26:28.109Z,705.07
2015-11-26T00:26:41.437Z,705.11
2015-11-26T00:26:54.751Z,705.13
2015-11-26T00:27:08.111Z,705.14
2015-11-26T00:27:21.439Z,705.14
2015-11-26T00:27:34.736Z,705.12
2015-11-26T00:27:48.098Z,705.16
2015-11-26T00:28:01.395Z,705.07
2015-11-26T00:28:14.708Z,705.09
2015-11-26T00:28:27.989Z,705.14
2015-11-26T00:28:41.348Z,705.1
2015-11-26T00:28:54.711Z,705.13
2015-11-26T00:29:08.023Z,705.14
2015-11-26T00:29:21.336Z,705.15
2015-11-26T00:29:34.664Z,705.13
2015-11-26T00:29:47.976Z,705.1
2015-11-26T00:30:01.291Z,705.1
2015-11-26T00:30:14.572Z,705.14
2015-11-26T00:30:27.869Z,705.1
2015-11-26T00:30:41.150Z,705.1
2015-11-26T00:30:54.434Z,705.11
2015-11-26T00:31:07.716Z,705.11
2015-11-26T00:31:21.028Z,705.08
2015-11-26T00:31:34.341Z,705.09
2015-11-26T00:31:47.747Z,705.12
2015-11-26T00:32:01.047Z,705.13
2015-11-26T00:32:14.328Z,705.12
2015-11-26T00:32:27.453Z,705.09
2015-11-26T00:32:40.750Z,705.1
2015-11-26T00:32:54.065Z,705.14
2015-11-26T00:33:07.378Z,705.15
2015-11-26T00:33:20.659Z,705.1
2015-11-26T00:33:33.956Z,705.11
2015-11-26T00:33:47.268Z,705.1
2015-11-26T00:34:00.599Z,705.09
2015-11-26T00:34:14.036Z,705.08
2015-11-26T00:34:27.317Z,705.06
2015-11-26T00:34:40.583Z,705.06
2015-11-26T00:34:53.883Z,705.06
2015-11-26T00:35:07.164Z,705
2015-11-26T00:35:20.445Z,705.02
2015-11-26T00:35:33.758Z,704.99
2015-11-26T00:35:47.055Z,705.03
2015-11-26T00:36:00.370Z,705.05
2015-11-26T00:36:13.683Z,705.02
2015-11-26T00:36:27.011Z,705
2015-11-26T00:36:40.323Z,704.93
2015-11-26T00:36:53.622Z,704.81
2015-11-26T00:37:06.888Z,705.01
2015-11-26T00:37:20.200Z,704.89
2015-11-26T00:37:33.560Z,704.89
2015-11-26T00:37:46.919Z,705.04
2015-11-26T00:38:00.219Z,704.88
2015-11-26T00:38:13.516Z,704.99
2015-11-26T00:38:26.828Z,705.03
2015-11-26T00:38:40.141Z,705.03
2015-11-26T00:38:53.328Z,704.99
2015-11-26T00:39:06.659Z,705
2015-11-26T00:39:20.003Z,705.04
2015-11-26T00:39:33.269Z,705.05
2015-11-26T00:39:46.550Z,705.01
2015-11-26T00:39:59.849Z,705.04
2015-11-26T00:40:13.161Z,705.06
2015-11-26T00:40:26.474Z,705.06
2015-11-26T00:40:39.786Z,705.06
2015-11-26T00:40:53.177Z,705
2015-11-26T00:41:06.539Z,705.02
2015-11-26T00:41:19.868Z,705.03
2015-11-26T00:41:33.180Z,704.95
2015-11-26T00:41:46.321Z,705.03
2015-11-26T00:41:59.605Z,705.05
2015-11-26T00:42:12.886Z,704.95
2015-11-26T00:42:26.183Z,705.06
2015-11-26T00:42:39.464Z,704.99
2015-11-26T00:42:52.855Z,705.04
2015-11-26T00:43:06.201Z,705.04
2015-11-26T00:43:19.513Z,705.03
2015-11-26T00:43:32.841Z,705.09
2015-11-26T00:43:46.123Z,705.05
2015-11-26T00:43:59.314Z,705.07
2015-11-26T00:44:12.658Z,705.11
2015-11-26T00:44:25.939Z,705.06
2015-11-26T00:44:39.236Z,705.03
2015-11-26T00:44:52.517Z,705
2015-11-26T00:45:05.816Z,705.01
2015-11-26T00:45:19.129Z,704.95
2015-11-26T00:45:32.425Z,705.01
2015-11-26T00:45:45.738Z,705.01
2015-11-26T00:45:59.035Z,705.04
2015-11-26T00:46:12.366Z,705.06
2015-11-26T00:46:25.694Z,705.11
2015-11-26T00:46:38.975Z,705.08
2015-11-26T00:46:52.257Z,705.07
2015-11-26T00:47:05.556Z,705.05
2015-11-26T00:47:18.947Z,705.05
2015-11-26T00:47:32.291Z,705.08
2015-11-26T00:47:45.666Z,705.07
2015-11-26T00:47:58.963Z,705.09
2015-11-26T00:48:12.277Z,705.03
2015-11-26T00:48:25.590Z,705.09
2015-11-26T00:48:38.855Z,705.07
2015-11-26T00:48:52.168Z,705.12
2015-11-26T00:49:05.468Z,705.13
2015-11-26T00:49:18.827Z,705.09
2015-11-26T00:49:32.218Z,705.1
2015-11-26T00:49:45.561Z,705.12
2015-11-26T00:49:58.702Z,705.19
2015-11-26T00:50:12.048Z,705.16
2015-11-26T00:50:25.329Z,705.14
2015-11-26T00:50:38.610Z,705.15
2015-11-26T00:50:51.907Z,705.16
2015-11-26T00:51:05.207Z,705.14
2015-11-26T00:51:18.582Z,705.15
2015-11-26T00:51:31.879Z,705.19
2015-11-26T00:51:45.176Z,705.16
2015-11-26T00:51:58.504Z,705.1
2015-11-26T00:52:11.804Z,705.14
2015-11-26T00:52:25.085Z,705.1
2015-11-26T00:52:38.444Z,705.12
2015-11-26T00:52:51.788Z,705.12
2015-11-26T00:53:05.071Z,705.14
2015-11-26T00:53:18.353Z,705.15
2015-11-26T00:53:31.665Z,705.14
2015-11-26T00:53:45.009Z,705.1
2015-11-26T00:53:58.478Z,705.14
2015-11-26T00:54:11.779Z,705.15
2015-11-26T00:54:25.075Z,705.18
2015-11-26T00:54:38.357Z,705.2
2015-11-26T00:54:51.685Z,705.21
2015-11-26T00:55:04.966Z,705.14
2015-11-26T00:55:18.249Z,705.13
2015-11-26T00:55:31.546Z,705.03
2015-11-26T00:55:44.843Z,705.15
2015-11-26T00:55:58.140Z,705.09
2015-11-26T00:56:11.362Z,705.11
2015-11-26T00:56:24.659Z,705.14
2015-11-26T00:56:37.940Z,705.21
2015-11-26T00:56:51.221Z,705.12
2015-11-26T00:57:04.502Z,705.14
2015-11-26T00:57:17.802Z,705.12
2015-11-26T00:57:31.083Z,705.13
2015-11-26T00:57:44.396Z,705.17
2015-11-26T00:57:57.693Z,705.18
2015-11-26T00:58:11.023Z,705.23
2015-11-26T00:58:24.320Z,705.18
2015-11-26T00:58:37.679Z,705.12
2015-11-26T00:58:50.976Z,705.19
2015-11-26T00:59:04.257Z,705.19
2015-11-26T00:59:17.594Z,705.15
2015-11-26T00:59:30.907Z,705.11
2015-11-26T00:59:44.219Z,705.04
2015-11-26T00:59:57.547Z,704.94
2015-11-26T01:00:10.879Z,705
2015-11-26T01:00:24.238Z,705.08
2015-11-26T01:00:37.519Z,705.08
2015-11-26T01:00:50.800Z,705.16
2015-11-26T01:01:04.097Z,705.12
2015-11-26T01:01:17.381Z,705.12
2015-11-26T01:01:30.662Z,705.17
2015-11-26T01:01:43.974Z,705.13
2015-11-26T01:01:57.256Z,705.13
2015-11-26T01:02:10.552Z,705.16
2015-11-26T01:02:23.899Z,705.14
2015-11-26T01:02:37.212Z,705.18
2015-11-26T01:02:50.509Z,705.18
2015-11-26T01:03:03.790Z,705.21
2015-11-26T01:03:17.074Z,705.2
2015-11-26T01:03:30.371Z,705.18
2015-11-26T01:03:43.762Z,705.25
2015-11-26T01:03:57.074Z,705.21
2015-11-26T01:04:10.418Z,705.28
2015-11-26T01:04:23.796Z,705.26
2015-11-26T01:04:37.140Z,705.22
2015-11-26T01:04:50.452Z,705.22
2015-11-26T01:05:03.796Z,705.22
2015-11-26T01:05:17.095Z,705.25
2015-11-26T01:05:30.485Z,705.21
2015-11-26T01:05:43.767Z,705.24
2015-11-26T01:05:57.048Z,705.23
2015-11-26T01:06:10.313Z,705.2
2015-11-26T01:06:23.613Z,705.22
2015-11-26T01:06:36.926Z,705.24
2015-11-26T01:06:50.316Z,705.22
2015-11-26T01:07:03.707Z,705.27
2015-11-26T01:07:17.051Z,705.26
2015-11-26T01:07:30.382Z,705.22
2015-11-26T01:07:43.663Z,705.2
2015-11-26T01:07:57.023Z,705.21
2015-11-26T01:08:10.366Z,705.18
2015-11-26T01:08:23.651Z,705.16
2015-11-26T01:08:36.947Z,705.16
2015-11-26T01:08:50.244Z,705.15
2015-11-26T01:09:03.526Z,705.1
2015-11-26T01:09:16.822Z,705.21
2015-11-26T01:09:30.138Z,705.22
2015-11-26T01:09:43.529Z,705.12
2015-11-26T01:09:56.935Z,705.24
2015-11-26T01:10:10.279Z,705.23
2015-11-26T01:10:23.577Z,705.19
2015-11-26T01:10:36.874Z,705.17
2015-11-26T01:10:50.156Z,705.16
2015-11-26T01:11:03.499Z,705.18
2015-11-26T01:11:16.781Z,705.26
2015-11-26T01:11:30.065Z,705.25
2015-11-26T01:11:43.362Z,705.12
2015-11-26T01:11:56.752Z,705.14
2015-11-26T01:12:10.080Z,705.13
2015-11-26T01:12:23.409Z,705.11
2015-11-26T01:12:36.692Z,705.18
2015-11-26T01:12:49.989Z,705.16
2015-11-26T01:13:03.301Z,705.11
2015-11-26T01:13:16.598Z,705.24
2015-11-26T01:13:29.899Z,705.31
2015-11-26T01:13:43.165Z,705.28
2015-11-26T01:13:56.461Z,705.29
2015-11-26T01:14:09.774Z,705.24
2015-11-26T01:14:23.102Z,705.26
2015-11-26T01:14:36.463Z,705.21
2015-11-26T01:14:49.760Z,705.18
2015-11-26T01:15:03.042Z,705.17
2015-11-26T01:15:16.323Z,705.13
2015-11-26T01:15:29.606Z,705.08
2015-11-26T01:15:42.903Z,705.15
2015-11-26T01:15:56.200Z,705.22
2015-11-26T01:16:09.481Z,705.14
2015-11-26T01:16:22.778Z,705.18
2015-11-26T01:16:36.109Z,705.19
2015-11-26T01:16:49.453Z,705.13
2015-11-26T01:17:02.750Z,705.26
2015-11-26T01:17:16.031Z,705.17
2015-11-26T01:17:29.315Z,705.22
2015-11-26T01:17:42.659Z,705.19
2015-11-26T01:17:56.018Z,705.25
2015-11-26T01:18:09.284Z,705.21
2015-11-26T01:18:22.596Z,705.16
2015-11-26T01:18:35.895Z,705.28
2015-11-26T01:18:49.223Z,705.23
2015-11-26T01:19:02.552Z,705.18
2015-11-26T01:19:15.880Z,705.14
2015-11-26T01:19:29.165Z,705.18
2015-11-26T01:19:42.477Z,705.21
2015-11-26T01:19:55.759Z,705.21
2015-11-26T01:20:09.056Z,705.22
2015-11-26T01:20:22.337Z,705.17
2015-11-26T01:20:35.652Z,705.2
2015-11-26T01:20:48.934Z,705.13
2015-11-26T01:21:02.277Z,705.17
2015-11-26T01:21:15.621Z,705.18
2015-11-26T01:21:28.980Z,705.22
2015-11-26T01:21:42.311Z,705.19
2015-11-26T01:21:55.592Z,705.08
2015-11-26T01:22:08.936Z,705.1
2015-11-26T01:22:53.518Z,705.09
2015-11-26T01:23:06.861Z,705.15
2015-11-26T01:23:20.190Z,705.16
2015-11-26T01:23:33.518Z,705.17
2015-11-26T01:23:46.846Z,705.19
2015-11-26T01:24:00.192Z,705.15
2015-11-26T01:24:13.535Z,705.18
2015-11-26T01:24:26.832Z,705.19
2015-11-26T01:24:40.113Z,705.19
2015-11-26T01:24:53.413Z,705.21
2015-11-26T01:25:06.695Z,705.21
2015-11-26T01:25:20.054Z,705.07
2015-11-26T01:25:33.413Z,705.13
2015-11-26T01:25:46.726Z,705.18
2015-11-26T01:26:00.041Z,705.15
2015-11-26T01:26:13.354Z,705.1
2015-11-26T01:26:26.635Z,705.18
2015-11-26T01:26:39.916Z,705.22
2015-11-26T01:26:53.276Z,705.18
2015-11-26T01:27:06.621Z,705.03
2015-11-26T01:27:19.918Z,705.04
2015-11-26T01:27:33.215Z,704.99
2015-11-26T01:27:46.528Z,705.02
2015-11-26T01:27:59.843Z,705.1
2015-11-26T01:28:13.249Z,705.21
2015-11-26T01:28:26.546Z,705.22
2015-11-26T01:28:39.843Z,705.28
2015-11-26T01:28:53.218Z,705.27
2015-11-26T01:29:06.502Z,705.23
2015-11-26T01:29:19.784Z,705.24
2015-11-26T01:29:33.065Z,705.29
2015-11-26T01:29:46.377Z,705.26
2015-11-26T01:29:59.771Z,705.24
2015-11-26T01:30:13.084Z,705.23
2015-11-26T01:30:26.380Z,705.27
2015-11-26T01:30:39.755Z,705.18
2015-11-26T01:30:53.146Z,705.16
2015-11-26T01:31:06.461Z,705.14
2015-11-26T01:31:19.757Z,705.14
2015-11-26T01:31:33.039Z,705.13
2015-11-26T01:31:46.336Z,705.15
2015-11-26T01:31:59.648Z,705.11
2015-11-26T01:32:12.965Z,705.15
2015-11-26T01:32:26.277Z,705.14
2015-11-26T01:32:39.605Z,705.08
2015-11-26T01:32:52.918Z,705.13
2015-11-26T01:33:06.201Z,705.08
2015-11-26T01:33:19.560Z,705.19
2015-11-26T01:33:32.842Z,705.19
2015-11-26T01:33:46.138Z,705.16
2015-11-26T01:33:59.467Z,705.13
2015-11-26T01:34:12.751Z,705.19
2015-11-26T01:34:26.048Z,705.17
2015-11-26T01:34:39.454Z,705.21
2015-11-26T01:34:52.766Z,705.17
2015-11-26T01:35:06.051Z,705.17
2015-11-26T01:35:19.332Z,705.19
2015-11-26T01:35:32.691Z,705.24
2015-11-26T01:35:45.988Z,705.19
2015-11-26T01:35:59.269Z,705.14
2015-11-26T01:36:12.569Z,705.07
2015-11-26T01:36:25.866Z,705.06
2015-11-26T01:36:39.147Z,705.13
2015-11-26T01:36:52.476Z,705.16
2015-11-26T01:37:05.788Z,705.19
2015-11-26T01:37:19.118Z,705.25
2015-11-26T01:37:32.431Z,705.16
2015-11-26T01:37:45.712Z,705.2
2015-11-26T01:37:59.024Z,705.24
2015-11-26T01:38:12.293Z,705.15
2015-11-26T01:38:25.684Z,705.24
2015-11-26T01:38:38.996Z,705.24
2015-11-26T01:38:52.277Z,705.15
2015-11-26T01:39:05.574Z,705.23
2015-11-26T01:39:18.905Z,705.27
2015-11-26T01:39:32.234Z,705.28
2015-11-26T01:39:45.546Z,705.32
2015-11-26T01:39:58.843Z,705.29
2015-11-26T01:40:12.126Z,705.25
2015-11-26T01:40:25.407Z,705.2
2015-11-26T01:40:38.704Z,705.16
2015-11-26T01:40:51.986Z,705.07
2015-11-26T01:41:05.267Z,705.16
2015-11-26T01:41:18.770Z,705.11
2015-11-26T01:41:32.067Z,705.19
2015-11-26T01:41:45.379Z,705.2
2015-11-26T01:42:12.867Z,705.21
2015-11-26T01:42:26.179Z,705.23
2015-11-26T01:42:39.476Z,705.19
2015-11-26T01:42:52.773Z,705.09
2015-11-26T01:43:06.054Z,705.16
2015-11-26T01:43:19.353Z,705.24
2015-11-26T01:43:32.665Z,705.24
2015-11-26T01:43:45.947Z,705.29
2015-11-26T01:43:59.259Z,705.3
2015-11-26T01:44:12.587Z,705.25
2015-11-26T01:44:25.919Z,705.24
2015-11-26T01:44:39.201Z,705.33
2015-11-26T01:44:52.498Z,705.33
2015-11-26T01:45:05.779Z,705.31
2015-11-26T01:45:19.078Z,705.31
2015-11-26T01:45:32.359Z,705.33
2015-11-26T01:45:45.656Z,705.3
2015-11-26T01:45:58.953Z,705.33
2015-11-26T01:46:12.296Z,705.36
2015-11-26T01:46:25.612Z,705.36
2015-11-26T01:46:38.909Z,705.31
2015-11-26T01:46:52.221Z,705.32
2015-11-26T01:47:05.487Z,705.37
2015-11-26T01:47:18.818Z,705.36
2015-11-26T01:47:32.099Z,705.37
2015-11-26T01:47:45.474Z,705.35
2015-11-26T01:47:58.834Z,705.37
2015-11-26T01:48:12.131Z,705.39
2015-11-26T01:48:25.476Z,705.38
2015-11-26T01:48:38.773Z,705.34
2015-11-26T01:48:52.054Z,705.32
2015-11-26T01:49:19.542Z,705.36
2015-11-26T01:49:32.886Z,705.34
2015-11-26T01:49:46.167Z,705.33
2015-11-26T01:49:59.448Z,705.29
2015-11-26T01:50:12.729Z,705.35
2015-11-26T01:50:26.060Z,705.37
2015-11-26T01:50:39.389Z,705.35
2015-11-26T01:50:52.732Z,705.37
2015-11-26T01:51:06.076Z,705.33
2015-11-26T01:51:19.389Z,705.34
2015-11-26T01:51:32.751Z,705.33
2015-11-26T01:51:46.032Z,705.35
2015-11-26T01:51:59.329Z,705.31
2015-11-26T01:52:12.610Z,705.36
2015-11-26T01:52:25.894Z,705.36
2015-11-26T01:52:39.190Z,705.36
2015-11-26T01:52:52.534Z,705.39
2015-11-26T01:53:05.956Z,705.4
2015-11-26T01:53:19.269Z,705.34
2015-11-26T01:53:32.600Z,705.36
2015-11-26T01:53:45.865Z,705.42
2015-11-26T01:53:59.193Z,705.37
2015-11-26T01:54:12.553Z,705.4
2015-11-26T01:54:25.836Z,705.36
2015-11-26T01:54:39.117Z,705.35
2015-11-26T01:54:52.430Z,705.41
2015-11-26T01:55:05.742Z,705.4
2015-11-26T01:55:19.070Z,705.33
2015-11-26T01:55:32.355Z,705.34
2015-11-26T01:55:45.636Z,705.37
2015-11-26T01:55:58.933Z,705.39
2015-11-26T01:56:12.230Z,705.34
2015-11-26T01:56:25.561Z,705.39
2015-11-26T01:56:38.858Z,705.39
2015-11-26T01:56:52.170Z,705.37
2015-11-26T01:57:05.498Z,705.29
2015-11-26T01:57:18.826Z,705.4
2015-11-26T01:57:32.126Z,705.37
2015-11-26T01:57:45.392Z,705.43
2015-11-26T01:57:58.689Z,705.35
2015-11-26T01:58:11.986Z,705.35
2015-11-26T01:58:25.269Z,705.35
2015-11-26T01:58:38.566Z,705.26
2015-11-26T01:58:51.863Z,705.3
2015-11-26T01:59:05.206Z,705.32
2015-11-26T01:59:18.253Z,705.29
2015-11-26T01:59:31.303Z,705.33
2015-11-26T01:59:44.350Z,705.4
2015-11-26T01:59:57.631Z,705.38
2015-11-26T02:00:10.834Z,705.34
2015-11-26T02:00:24.131Z,705.36
2015-11-26T02:00:37.430Z,705.39
2015-11-26T02:00:50.696Z,705.34
2015-11-26T02:01:03.993Z,705.41
2015-11-26T02:01:17.133Z,705.35
2015-11-26T02:01:30.464Z,705.42
2015-11-26T02:01:43.793Z,705.4
2015-11-26T02:01:57.105Z,705.38
2015-11-26T02:02:10.433Z,705.39
2015-11-26T02:02:23.714Z,705.38
2015-11-26T02:02:37.014Z,705.43
2015-11-26T02:02:50.296Z,705.45
2015-11-26T02:03:03.592Z,705.39
2015-11-26T02:03:16.952Z,705.41
2015-11-26T02:03:30.252Z,705.46
2015-11-26T02:03:43.549Z,705.45
2015-11-26T02:03:56.861Z,705.42
2015-11-26T02:04:10.189Z,705.5
2015-11-26T02:04:23.533Z,705.42
2015-11-26T02:04:36.817Z,705.34
2015-11-26T02:04:50.192Z,705.4
2015-11-26T02:05:03.489Z,705.43
2015-11-26T02:05:16.786Z,705.44
2015-11-26T02:05:30.098Z,705.42
2015-11-26T02:05:43.382Z,705.49
2015-11-26T02:05:56.538Z,705.44
2015-11-26T02:06:09.835Z,705.42
2015-11-26T02:06:23.147Z,705.42
2015-11-26T02:06:36.478Z,705.4
2015-11-26T02:06:49.807Z,705.32
2015-11-26T02:07:03.088Z,705.39
2015-11-26T02:07:16.353Z,705.41
2015-11-26T02:07:29.650Z,705.44
2015-11-26T02:07:42.950Z,705.47
2015-11-26T02:07:56.247Z,705.44
2015-11-26T02:08:09.528Z,705.48
2015-11-26T02:08:22.825Z,705.48
2015-11-26T02:08:36.141Z,705.51
2015-11-26T02:08:49.469Z,705.43
2015-11-26T02:09:02.813Z,705.38
2015-11-26T02:09:16.125Z,705.4
2015-11-26T02:09:29.422Z,705.41
2015-11-26T02:09:42.736Z,705.4
2015-11-26T02:09:56.018Z,705.42
2015-11-26T02:10:09.299Z,705.43
2015-11-26T02:10:22.611Z,705.4
2015-11-26T02:10:35.943Z,705.42
2015-11-26T02:10:49.318Z,705.4
2015-11-26T02:11:02.646Z,705.42
2015-11-26T02:11:15.927Z,705.46
2015-11-26T02:11:29.224Z,705.43
2015-11-26T02:11:42.508Z,705.4
2015-11-26T02:11:55.774Z,705.39
2015-11-26T02:12:09.055Z,705.41
2015-11-26T02:12:22.383Z,705.39
2015-11-26T02:12:35.699Z,705.42
2015-11-26T02:12:49.011Z,705.36
2015-11-26T02:13:02.339Z,705.45
2015-11-26T02:13:15.667Z,705.38
2015-11-26T02:13:28.980Z,705.35
2015-11-26T02:13:42.372Z,705.34
2015-11-26T02:13:55.654Z,705.35
2015-11-26T02:14:08.935Z,705.35
2015-11-26T02:14:22.122Z,705.36
2015-11-26T02:14:35.435Z,705.42
2015-11-26T02:14:48.750Z,705.42
2015-11-26T02:15:02.063Z,705.42
2015-11-26T02:15:15.407Z,705.37
2015-11-26T02:15:28.719Z,705.29
2015-11-26T02:15:42.050Z,705.22
2015-11-26T02:16:22.832Z,705.2
2015-11-26T02:16:36.269Z,705.19
2015-11-26T02:16:49.552Z,705.33
2015-11-26T02:17:02.865Z,705.4
2015-11-26T02:17:16.162Z,705.37
2015-11-26T02:17:29.474Z,705.34
2015-11-26T02:17:42.852Z,705.29
2015-11-26T02:17:56.196Z,705.38
2015-11-26T02:18:09.493Z,705.37
2015-11-26T02:18:22.790Z,705.4
2015-11-26T02:18:36.087Z,705.4
2015-11-26T02:18:49.371Z,705.41
2015-11-26T02:19:02.683Z,705.41
2015-11-26T02:19:15.902Z,705.44
2015-11-26T02:19:29.058Z,705.43
2015-11-26T02:19:42.389Z,705.39
2015-11-26T02:19:55.733Z,705.48
2015-11-26T02:20:09.046Z,705.44
2015-11-26T02:20:22.468Z,705.34
2015-11-26T02:20:35.749Z,705.4
2015-11-26T02:20:49.033Z,705.43
2015-11-26T02:21:02.330Z,705.43
2015-11-26T02:21:15.627Z,705.45
2015-11-26T02:21:28.924Z,705.45
2015-11-26T02:21:42.221Z,705.5
2015-11-26T02:21:55.504Z,705.48
2015-11-26T02:22:08.910Z,705.45
2015-11-26T02:22:22.269Z,705.48
2015-11-26T02:22:35.566Z,705.46
2015-11-26T02:22:48.866Z,705.47
2015-11-26T02:23:02.132Z,705.49
2015-11-26T02:23:15.444Z,705.46
2015-11-26T02:23:28.772Z,705.48
2015-11-26T02:23:42.054Z,705.49
2015-11-26T02:23:55.337Z,705.47
2015-11-26T02:24:08.634Z,705.43
2015-11-26T02:24:22.024Z,705.42
2015-11-26T02:24:35.353Z,705.37
2015-11-26T02:24:48.668Z,705.43
2015-11-26T02:25:01.996Z,705.38
2015-11-26T02:25:15.277Z,705.38
2015-11-26T02:25:28.574Z,705.41
2015-11-26T02:25:41.856Z,705.41
2015-11-26T02:25:55.155Z,705.46
2015-11-26T02:26:08.468Z,705.42
2015-11-26T02:26:21.765Z,705.43
2015-11-26T02:26:35.062Z,705.42
2015-11-26T02:26:48.362Z,705.45
2015-11-26T02:27:01.690Z,705.42
2015-11-26T02:27:15.002Z,705.44
2015-11-26T02:27:28.283Z,705.44
2015-11-26T02:27:41.580Z,705.42
2015-11-26T02:27:54.708Z,705.42
2015-11-26T02:28:08.005Z,705.45
2015-11-26T02:28:21.286Z,705.44
2015-11-26T02:28:34.583Z,705.43
2015-11-26T02:28:47.880Z,705.47
2015-11-26T02:29:01.195Z,705.49
2015-11-26T02:29:14.523Z,705.42
2015-11-26T02:29:27.804Z,705.35
2015-11-26T02:29:41.117Z,705.37
2015-11-26T02:29:54.479Z,705.38
2015-11-26T02:30:07.760Z,705.31
2015-11-26T02:30:21.041Z,705.27
2015-11-26T02:30:34.385Z,705.32
2015-11-26T02:30:47.807Z,705.33
2015-11-26T02:31:01.107Z,705.39
2015-11-26T02:31:14.435Z,705.38
2015-11-26T02:31:27.748Z,705.4
2015-11-26T02:31:41.044Z,705.42
2015-11-26T02:31:54.453Z,705.47
2015-11-26T02:32:07.718Z,705.4
2015-11-26T02:32:21.000Z,705.43
2015-11-26T02:32:34.281Z,705.46
2015-11-26T02:32:47.578Z,705.49
2015-11-26T02:33:00.862Z,705.47
2015-11-26T02:33:14.190Z,705.46
2015-11-26T02:33:27.643Z,705.43
2015-11-26T02:33:40.987Z,705.45
2015-11-26T02:33:54.315Z,705.48
2015-11-26T02:34:07.631Z,705.43
2015-11-26T02:34:20.912Z,705.38
2015-11-26T02:34:34.256Z,705.35
2015-11-26T02:34:47.631Z,705.33
2015-11-26T02:35:00.929Z,705.27
2015-11-26T02:35:14.242Z,705.31
2015-11-26T02:35:41.711Z,705.35
2015-11-26T02:35:55.008Z,705.35
2015-11-26T02:36:08.323Z,705.31
2015-11-26T02:36:21.620Z,705.38
2015-11-26T02:36:34.932Z,705.34
2015-11-26T02:36:48.245Z,705.33
2015-11-26T02:37:01.389Z,705.25
2015-11-26T02:37:14.670Z,705.18
2015-11-26T02:37:27.982Z,705.32
2015-11-26T02:37:41.279Z,705.25
2015-11-26T02:37:54.482Z,705.23
2015-11-26T02:38:07.829Z,705.28
2015-11-26T02:38:21.157Z,705.24
2015-11-26T02:38:34.548Z,705.27
2015-11-26T02:38:47.907Z,705.27
2015-11-26T02:39:01.190Z,705.26
2015-11-26T02:39:14.487Z,705.22
2015-11-26T02:39:27.769Z,705.27
2015-11-26T02:39:41.112Z,705.31
2015-11-26T02:39:54.487Z,705.3
2015-11-26T02:40:07.772Z,705.31
2015-11-26T02:40:21.084Z,705.34
2015-11-26T02:40:34.412Z,705.33
2015-11-26T02:40:47.787Z,705.26
2015-11-26T02:41:01.178Z,705.14
2015-11-26T02:41:14.493Z,705.2
2015-11-26T02:41:27.775Z,705.23
2015-11-26T02:41:41.071Z,705.25
2015-11-26T02:41:54.431Z,705.2
2015-11-26T02:42:07.824Z,705.23
2015-11-26T02:42:21.106Z,705.23
2015-11-26T02:42:34.403Z,705.26
2015-11-26T02:42:47.762Z,705.32
2015-11-26T02:43:01.137Z,705.27
2015-11-26T02:43:14.467Z,705.17
2015-11-26T02:43:27.639Z,705.22
2015-11-26T02:43:40.983Z,705.31
2015-11-26T02:43:54.280Z,705.38
2015-11-26T02:44:07.626Z,705.37
2015-11-26T02:44:20.908Z,705.43
2015-11-26T02:44:34.204Z,705.33
2015-11-26T02:44:47.533Z,705.35
2015-11-26T02:45:00.829Z,705.26
2015-11-26T02:45:14.145Z,705.39
2015-11-26T02:45:27.457Z,705.38
2015-11-26T02:45:40.817Z,705.4
2015-11-26T02:45:54.192Z,705.43
2015-11-26T02:46:07.504Z,705.43
2015-11-26T02:46:20.803Z,705.42
2015-11-26T02:46:34.084Z,705.44
2015-11-26T02:46:47.381Z,705.44
2015-11-26T02:47:00.741Z,705.4
2015-11-26T02:47:14.025Z,705.43
2015-11-26T02:47:27.322Z,705.37
2015-11-26T02:47:40.603Z,705.46
2015-11-26T02:47:53.931Z,705.54
2015-11-26T02:48:07.259Z,705.48
2015-11-26T02:48:20.606Z,705.46
2015-11-26T02:48:33.965Z,705.44
2015-11-26T02:48:47.247Z,705.48
2015-11-26T02:49:00.544Z,705.47